Cradley Heath, United Kingdom
Current Conditions -  °F | °C
As of 9:50 AM on Monday 22 Dec 2014 (Local Time) from EGBB Reporting Station
Broken Clouds Broken Clouds  
Wind Chill: 12°   Ceiling: 1800
Heat Index: 12°   Visibility: 6mi
Dew Point:   Wind: 14mph
Humidity: 77%   Direction: 230°SW
Pressure: 29.94"   Gusts: 25mph
Location:  52.47°N, 2.09°W
Report Text: EGBB 220950Z 23012G22KT 200V270 9999 BKN018 12/08 Q1014
Loading
Personal Weather Stations






























Interactive Weather Map New forecast layout! Learn more

10-Day Weather Forecast

Advertisements
Track Severe Weather on mobile